sensor_id;sensor_type;location;lat;lon;timestamp;P1;durP1;ratioP1;P2;durP2;ratioP2
51800;SDS011;37855;53.204;6.568;2022-10-16T00:01:23;9.48;;;2.28;;
51800;SDS011;37855;53.204;6.568;2022-10-16T00:03:50;13.95;;;2.13;;
51800;SDS011;37855;53.204;6.568;2022-10-16T00:06:17;12.20;;;2.20;;
51800;SDS011;37855;53.204;6.568;2022-10-16T00:08:44;10.93;;;2.10;;
51800;SDS011;37855;53.204;6.568;2022-10-16T00:11:13;11.00;;;2.22;;
51800;SDS011;37855;53.204;6.568;2022-10-16T00:13:42;9.40;;;2.17;;
51800;SDS011;37855;53.204;6.568;2022-10-16T00:16:11;10.38;;;2.25;;
51800;SDS011;37855;53.204;6.568;2022-10-16T00:18:38;13.43;;;2.47;;
51800;SDS011;37855;53.204;6.568;2022-10-16T00:21:05;9.93;;;1.95;;
51800;SDS011;37855;53.204;6.568;2022-10-16T00:23:36;11.70;;;2.20;;
51800;SDS011;37855;53.204;6.568;2022-10-16T00:26:03;9.32;;;2.08;;
51800;SDS011;37855;53.204;6.568;2022-10-16T00:28:34;7.63;;;2.08;;
51800;SDS011;37855;53.204;6.568;2022-10-16T00:31:04;9.70;;;2.15;;
51800;SDS011;37855;53.204;6.568;2022-10-16T00:33:32;9.63;;;2.20;;
51800;SDS011;37855;53.204;6.568;2022-10-16T00:35:59;6.03;;;1.65;;
51800;SDS011;37855;53.204;6.568;2022-10-16T00:38:25;8.70;;;1.80;;
51800;SDS011;37855;53.204;6.568;2022-10-16T00:40:51;9.70;;;1.80;;
51800;SDS011;37855;53.204;6.568;2022-10-16T00:46:19;6.40;;;1.92;;
51800;SDS011;37855;53.204;6.568;2022-10-16T00:51:37;10.05;;;2.15;;
51800;SDS011;37855;53.204;6.568;2022-10-16T00:54:10;10.80;;;2.20;;
51800;SDS011;37855;53.204;6.568;2022-10-16T00:56:43;10.40;;;2.35;;
51800;SDS011;37855;53.204;6.568;2022-10-16T00:59:18;9.90;;;1.88;;
51800;SDS011;37855;53.204;6.568;2022-10-16T01:01:47;7.78;;;1.70;;
51800;SDS011;37855;53.204;6.568;2022-10-16T01:04:15;8.60;;;1.85;;
51800;SDS011;37855;53.204;6.568;2022-10-16T01:07:05;9.07;;;1.80;;
51800;SDS011;37855;53.204;6.568;2022-10-16T01:12:48;9.43;;;1.70;;
51800;SDS011;37855;53.204;6.568;2022-10-16T01:18:05;10.15;;;1.90;;
51800;SDS011;37855;53.204;6.568;2022-10-16T01:23:54;6.32;;;1.50;;
51800;SDS011;37855;53.204;6.568;2022-10-16T01:26:38;4.75;;;1.60;;
51800;SDS011;37855;53.204;6.568;2022-10-16T01:29:18;7.03;;;1.40;;
51800;SDS011;37855;53.204;6.568;2022-10-16T01:31:53;8.18;;;1.80;;
51800;SDS011;37855;53.204;6.568;2022-10-16T01:34:25;6.53;;;1.58;;
51800;SDS011;37855;53.204;6.568;2022-10-16T01:37:32;8.85;;;2.00;;
51800;SDS011;37855;53.204;6.568;2022-10-16T01:40:05;7.60;;;1.65;;
51800;SDS011;37855;53.204;6.568;2022-10-16T01:42:39;6.53;;;1.60;;
51800;SDS011;37855;53.204;6.568;2022-10-16T01:45:12;9.20;;;1.83;;
51800;SDS011;37855;53.204;6.568;2022-10-16T01:47:40;9.05;;;1.70;;
51800;SDS011;37855;53.204;6.568;2022-10-16T01:50:06;7.50;;;1.60;;
51800;SDS011;37855;53.204;6.568;2022-10-16T01:52:34;7.00;;;1.50;;
51800;SDS011;37855;53.204;6.568;2022-10-16T01:55:04;7.18;;;1.90;;
51800;SDS011;37855;53.204;6.568;2022-10-16T01:57:32;8.77;;;1.70;;
51800;SDS011;37855;53.204;6.568;2022-10-16T02:00:03;9.45;;;1.98;;
51800;SDS011;37855;53.204;6.568;2022-10-16T02:02:33;6.50;;;1.75;;
51800;SDS011;37855;53.204;6.568;2022-10-16T02:05:34;7.93;;;1.65;;
51800;SDS011;37855;53.204;6.568;2022-10-16T02:08:11;7.53;;;1.80;;
51800;SDS011;37855;53.204;6.568;2022-10-16T02:10:38;4.85;;;1.40;;
51800;SDS011;37855;53.204;6.568;2022-10-16T02:16:03;5.80;;;1.73;;
51800;SDS011;37855;53.204;6.568;2022-10-16T02:18:29;8.98;;;1.58;;
51800;SDS011;37855;53.204;6.568;2022-10-16T02:20:59;6.70;;;1.75;;
51800;SDS011;37855;53.204;6.568;2022-10-16T02:23:36;7.88;;;1.95;;
51800;SDS011;37855;53.204;6.568;2022-10-16T02:26:27;7.45;;;1.77;;
51800;SDS011;37855;53.204;6.568;2022-10-16T02:29:02;5.30;;;1.42;;
51800;SDS011;37855;53.204;6.568;2022-10-16T02:31:35;6.80;;;1.73;;
51800;SDS011;37855;53.204;6.568;2022-10-16T02:34:06;3.78;;;1.48;;
51800;SDS011;37855;53.204;6.568;2022-10-16T02:36:33;4.60;;;1.60;;
51800;SDS011;37855;53.204;6.568;2022-10-16T02:39:00;6.07;;;1.83;;
51800;SDS011;37855;53.204;6.568;2022-10-16T02:41:28;6.25;;;1.40;;
51800;SDS011;37855;53.204;6.568;2022-10-16T02:43:55;6.30;;;1.65;;
51800;SDS011;37855;53.204;6.568;2022-10-16T02:46:21;6.30;;;1.75;;
51800;SDS011;37855;53.204;6.568;2022-10-16T02:48:46;10.70;;;2.08;;
51800;SDS011;37855;53.204;6.568;2022-10-16T02:51:13;4.85;;;1.50;;
51800;SDS011;37855;53.204;6.568;2022-10-16T02:53:39;4.13;;;1.30;;
51800;SDS011;37855;53.204;6.568;2022-10-16T02:56:06;5.68;;;1.60;;
51800;SDS011;37855;53.204;6.568;2022-10-16T02:58:32;7.10;;;1.65;;
51800;SDS011;37855;53.204;6.568;2022-10-16T03:00:58;6.82;;;1.52;;
51800;SDS011;37855;53.204;6.568;2022-10-16T03:03:23;5.18;;;1.40;;
51800;SDS011;37855;53.204;6.568;2022-10-16T03:05:49;5.57;;;1.42;;
51800;SDS011;37855;53.204;6.568;2022-10-16T03:08:14;4.82;;;1.40;;
51800;SDS011;37855;53.204;6.568;2022-10-16T03:10:40;7.00;;;1.67;;
51800;SDS011;37855;53.204;6.568;2022-10-16T03:13:06;5.28;;;1.45;;
51800;SDS011;37855;53.204;6.568;2022-10-16T03:15:31;5.97;;;1.50;;
51800;SDS011;37855;53.204;6.568;2022-10-16T03:17:57;7.30;;;1.33;;
51800;SDS011;37855;53.204;6.568;2022-10-16T03:20:23;4.35;;;1.30;;
51800;SDS011;37855;53.204;6.568;2022-10-16T03:22:49;6.80;;;1.67;;
51800;SDS011;37855;53.204;6.568;2022-10-16T03:25:16;5.10;;;1.30;;
51800;SDS011;37855;53.204;6.568;2022-10-16T03:27:42;4.82;;;1.48;;
51800;SDS011;37855;53.204;6.568;2022-10-16T03:30:08;4.10;;;1.48;;
51800;SDS011;37855;53.204;6.568;2022-10-16T03:32:34;5.65;;;1.60;;
51800;SDS011;37855;53.204;6.568;2022-10-16T03:35:00;5.97;;;1.73;;
51800;SDS011;37855;53.204;6.568;2022-10-16T03:37:25;5.95;;;1.30;;
51800;SDS011;37855;53.204;6.568;2022-10-16T03:39:51;3.83;;;1.20;;
51800;SDS011;37855;53.204;6.568;2022-10-16T03:42:17;5.18;;;1.42;;
51800;SDS011;37855;53.204;6.568;2022-10-16T03:44:42;5.05;;;1.55;;
51800;SDS011;37855;53.204;6.568;2022-10-16T03:47:08;4.97;;;1.60;;
51800;SDS011;37855;53.204;6.568;2022-10-16T03:49:34;5.30;;;1.80;;
51800;SDS011;37855;53.204;6.568;2022-10-16T03:51:59;5.75;;;1.60;;
51800;SDS011;37855;53.204;6.568;2022-10-16T03:54:25;7.78;;;1.70;;
51800;SDS011;37855;53.204;6.568;2022-10-16T03:56:51;6.40;;;1.48;;
51800;SDS011;37855;53.204;6.568;2022-10-16T03:59:16;6.15;;;1.65;;
51800;SDS011;37855;53.204;6.568;2022-10-16T04:01:42;5.78;;;1.95;;
51800;SDS011;37855;53.204;6.568;2022-10-16T04:04:07;5.13;;;1.73;;
51800;SDS011;37855;53.204;6.568;2022-10-16T04:06:33;5.15;;;1.70;;
51800;SDS011;37855;53.204;6.568;2022-10-16T04:08:59;4.57;;;1.52;;
51800;SDS011;37855;53.204;6.568;2022-10-16T04:11:24;3.92;;;1.60;;
51800;SDS011;37855;53.204;6.568;2022-10-16T04:13:50;6.30;;;1.67;;
51800;SDS011;37855;53.204;6.568;2022-10-16T04:16:16;5.70;;;1.90;;
51800;SDS011;37855;53.204;6.568;2022-10-16T04:18:41;4.32;;;1.73;;
51800;SDS011;37855;53.204;6.568;2022-10-16T04:21:07;6.85;;;1.92;;
51800;SDS011;37855;53.204;6.568;2022-10-16T04:23:33;7.30;;;1.60;;
51800;SDS011;37855;53.204;6.568;2022-10-16T04:25:59;4.40;;;1.52;;
51800;SDS011;37855;53.204;6.568;2022-10-16T04:28:25;7.53;;;1.83;;
51800;SDS011;37855;53.204;6.568;2022-10-16T04:30:51;4.72;;;1.70;;
51800;SDS011;37855;53.204;6.568;2022-10-16T04:33:17;6.32;;;1.67;;
51800;SDS011;37855;53.204;6.568;2022-10-16T04:35:44;6.32;;;1.73;;
51800;SDS011;37855;53.204;6.568;2022-10-16T04:38:09;8.00;;;1.75;;
51800;SDS011;37855;53.204;6.568;2022-10-16T04:40:35;4.43;;;1.58;;
51800;SDS011;37855;53.204;6.568;2022-10-16T04:43:02;5.57;;;1.60;;
51800;SDS011;37855;53.204;6.568;2022-10-16T04:45:28;7.22;;;1.70;;
51800;SDS011;37855;53.204;6.568;2022-10-16T04:47:57;4.32;;;1.65;;
51800;SDS011;37855;53.204;6.568;2022-10-16T04:50:26;6.72;;;1.67;;
51800;SDS011;37855;53.204;6.568;2022-10-16T04:52:56;5.10;;;1.80;;
51800;SDS011;37855;53.204;6.568;2022-10-16T04:55:22;8.35;;;1.92;;
51800;SDS011;37855;53.204;6.568;2022-10-16T04:57:48;5.90;;;1.77;;
51800;SDS011;37855;53.204;6.568;2022-10-16T05:00:13;5.45;;;1.55;;
51800;SDS011;37855;53.204;6.568;2022-10-16T05:02:39;7.68;;;2.10;;
51800;SDS011;37855;53.204;6.568;2022-10-16T05:05:05;8.00;;;1.73;;
51800;SDS011;37855;53.204;6.568;2022-10-16T05:07:32;7.15;;;1.70;;
51800;SDS011;37855;53.204;6.568;2022-10-16T05:09:58;5.63;;;1.90;;
51800;SDS011;37855;53.204;6.568;2022-10-16T05:12:23;7.32;;;2.05;;
51800;SDS011;37855;53.204;6.568;2022-10-16T05:14:49;6.43;;;1.80;;
51800;SDS011;37855;53.204;6.568;2022-10-16T05:17:16;5.35;;;1.77;;
51800;SDS011;37855;53.204;6.568;2022-10-16T05:19:41;5.47;;;1.88;;
51800;SDS011;37855;53.204;6.568;2022-10-16T05:22:07;8.02;;;2.30;;
51800;SDS011;37855;53.204;6.568;2022-10-16T05:24:34;7.60;;;1.90;;
51800;SDS011;37855;53.204;6.568;2022-10-16T05:26:59;4.72;;;1.75;;
51800;SDS011;37855;53.204;6.568;2022-10-16T05:29:25;7.07;;;1.92;;
51800;SDS011;37855;53.204;6.568;2022-10-16T05:31:54;6.85;;;2.00;;
51800;SDS011;37855;53.204;6.568;2022-10-16T05:34:20;6.35;;;2.10;;
51800;SDS011;37855;53.204;6.568;2022-10-16T05:36:46;8.35;;;2.00;;
51800;SDS011;37855;53.204;6.568;2022-10-16T05:39:12;4.63;;;2.05;;
51800;SDS011;37855;53.204;6.568;2022-10-16T05:41:40;8.55;;;2.22;;
51800;SDS011;37855;53.204;6.568;2022-10-16T05:44:05;6.00;;;2.20;;
51800;SDS011;37855;53.204;6.568;2022-10-16T05:46:32;7.80;;;2.20;;
51800;SDS011;37855;53.204;6.568;2022-10-16T05:48:58;6.38;;;2.28;;
51800;SDS011;37855;53.204;6.568;2022-10-16T05:51:24;7.82;;;2.40;;
51800;SDS011;37855;53.204;6.568;2022-10-16T05:53:49;8.25;;;2.30;;
51800;SDS011;37855;53.204;6.568;2022-10-16T05:56:15;6.63;;;2.15;;
51800;SDS011;37855;53.204;6.568;2022-10-16T05:58:42;7.47;;;2.30;;
51800;SDS011;37855;53.204;6.568;2022-10-16T06:01:13;5.93;;;2.20;;
51800;SDS011;37855;53.204;6.568;2022-10-16T06:03:40;7.00;;;1.90;;
51800;SDS011;37855;53.204;6.568;2022-10-16T06:08:38;5.22;;;2.38;;
51800;SDS011;37855;53.204;6.568;2022-10-16T06:11:05;6.15;;;2.40;;
51800;SDS011;37855;53.204;6.568;2022-10-16T06:13:33;6.15;;;2.38;;
51800;SDS011;37855;53.204;6.568;2022-10-16T06:15:59;7.72;;;2.53;;
51800;SDS011;37855;53.204;6.568;2022-10-16T06:18:26;6.15;;;2.20;;
51800;SDS011;37855;53.204;6.568;2022-10-16T06:20:53;6.53;;;2.40;;
51800;SDS011;37855;53.204;6.568;2022-10-16T06:23:19;7.57;;;2.70;;
51800;SDS011;37855;53.204;6.568;2022-10-16T06:25:45;9.20;;;2.88;;
51800;SDS011;37855;53.204;6.568;2022-10-16T06:28:11;5.72;;;2.47;;
51800;SDS011;37855;53.204;6.568;2022-10-16T06:30:38;6.47;;;2.40;;
51800;SDS011;37855;53.204;6.568;2022-10-16T06:33:04;7.82;;;2.70;;
51800;SDS011;37855;53.204;6.568;2022-10-16T06:35:29;7.63;;;2.63;;
51800;SDS011;37855;53.204;6.568;2022-10-16T06:37:56;9.13;;;2.50;;
51800;SDS011;37855;53.204;6.568;2022-10-16T06:40:22;7.82;;;2.65;;
51800;SDS011;37855;53.204;6.568;2022-10-16T06:42:48;10.57;;;2.78;;
51800;SDS011;37855;53.204;6.568;2022-10-16T06:45:14;8.93;;;2.90;;
51800;SDS011;37855;53.204;6.568;2022-10-16T06:47:39;7.93;;;2.60;;
51800;SDS011;37855;53.204;6.568;2022-10-16T06:50:05;7.95;;;2.42;;
51800;SDS011;37855;53.204;6.568;2022-10-16T06:52:34;8.80;;;2.53;;
51800;SDS011;37855;53.204;6.568;2022-10-16T06:54:59;8.15;;;2.67;;
51800;SDS011;37855;53.204;6.568;2022-10-16T06:57:30;7.05;;;2.40;;
51800;SDS011;37855;53.204;6.568;2022-10-16T06:59:56;8.82;;;2.60;;
51800;SDS011;37855;53.204;6.568;2022-10-16T07:02:22;8.38;;;3.17;;
51800;SDS011;37855;53.204;6.568;2022-10-16T07:04:48;8.93;;;2.70;;
51800;SDS011;37855;53.204;6.568;2022-10-16T07:07:14;9.20;;;2.63;;
51800;SDS011;37855;53.204;6.568;2022-10-16T07:09:40;8.05;;;2.40;;
51800;SDS011;37855;53.204;6.568;2022-10-16T07:12:06;10.10;;;2.45;;
51800;SDS011;37855;53.204;6.568;2022-10-16T07:14:32;7.80;;;2.40;;
51800;SDS011;37855;53.204;6.568;2022-10-16T07:16:57;6.60;;;2.28;;
51800;SDS011;37855;53.204;6.568;2022-10-16T07:19:23;7.68;;;2.25;;
51800;SDS011;37855;53.204;6.568;2022-10-16T07:21:50;8.00;;;2.33;;
51800;SDS011;37855;53.204;6.568;2022-10-16T07:24:16;7.45;;;2.42;;
51800;SDS011;37855;53.204;6.568;2022-10-16T07:26:42;8.60;;;2.50;;
51800;SDS011;37855;53.204;6.568;2022-10-16T07:29:17;6.95;;;2.20;;
51800;SDS011;37855;53.204;6.568;2022-10-16T07:31:45;10.73;;;3.35;;
51800;SDS011;37855;53.204;6.568;2022-10-16T07:34:12;9.57;;;2.95;;
51800;SDS011;37855;53.204;6.568;2022-10-16T07:36:39;9.77;;;2.50;;
51800;SDS011;37855;53.204;6.568;2022-10-16T07:39:05;8.68;;;2.30;;
51800;SDS011;37855;53.204;6.568;2022-10-16T07:41:31;6.13;;;2.20;;
51800;SDS011;37855;53.204;6.568;2022-10-16T07:43:58;7.57;;;2.40;;
51800;SDS011;37855;53.204;6.568;2022-10-16T07:46:27;6.53;;;2.50;;
51800;SDS011;37855;53.204;6.568;2022-10-16T07:48:53;6.57;;;2.10;;
51800;SDS011;37855;53.204;6.568;2022-10-16T07:51:20;9.38;;;2.40;;
51800;SDS011;37855;53.204;6.568;2022-10-16T07:53:47;8.98;;;2.35;;
51800;SDS011;37855;53.204;6.568;2022-10-16T07:56:13;5.32;;;2.20;;
51800;SDS011;37855;53.204;6.568;2022-10-16T07:58:41;7.20;;;2.70;;
51800;SDS011;37855;53.204;6.568;2022-10-16T08:01:09;10.07;;;3.10;;
51800;SDS011;37855;53.204;6.568;2022-10-16T08:03:42;8.07;;;2.60;;
51800;SDS011;37855;53.204;6.568;2022-10-16T08:06:13;7.63;;;2.45;;
51800;SDS011;37855;53.204;6.568;2022-10-16T08:08:42;6.60;;;2.60;;
51800;SDS011;37855;53.204;6.568;2022-10-16T08:11:08;6.95;;;2.30;;
51800;SDS011;37855;53.204;6.568;2022-10-16T08:13:34;5.82;;;2.30;;
51800;SDS011;37855;53.204;6.568;2022-10-16T08:16:00;9.00;;;2.53;;
51800;SDS011;37855;53.204;6.568;2022-10-16T08:18:26;9.60;;;2.35;;
51800;SDS011;37855;53.204;6.568;2022-10-16T08:20:55;6.95;;;2.17;;
51800;SDS011;37855;53.204;6.568;2022-10-16T08:23:23;7.70;;;2.45;;
51800;SDS011;37855;53.204;6.568;2022-10-16T08:25:50;7.65;;;2.47;;
51800;SDS011;37855;53.204;6.568;2022-10-16T08:28:18;4.57;;;2.08;;
51800;SDS011;37855;53.204;6.568;2022-10-16T08:30:43;8.07;;;2.33;;
51800;SDS011;37855;53.204;6.568;2022-10-16T08:33:09;8.15;;;2.35;;
51800;SDS011;37855;53.204;6.568;2022-10-16T08:35:35;6.47;;;1.92;;
51800;SDS011;37855;53.204;6.568;2022-10-16T08:38:04;5.72;;;1.67;;
51800;SDS011;37855;53.204;6.568;2022-10-16T08:40:39;5.80;;;1.90;;
51800;SDS011;37855;53.204;6.568;2022-10-16T08:48:56;6.28;;;1.88;;
51800;SDS011;37855;53.204;6.568;2022-10-16T08:51:31;6.85;;;1.83;;
51800;SDS011;37855;53.204;6.568;2022-10-16T08:54:05;8.20;;;2.00;;
51800;SDS011;37855;53.204;6.568;2022-10-16T08:56:40;5.88;;;1.70;;
51800;SDS011;37855;53.204;6.568;2022-10-16T08:59:06;11.43;;;1.60;;
51800;SDS011;37855;53.204;6.568;2022-10-16T09:01:46;8.07;;;2.00;;
51800;SDS011;37855;53.204;6.568;2022-10-16T09:09:53;7.63;;;1.80;;
51800;SDS011;37855;53.204;6.568;2022-10-16T09:12:41;8.50;;;1.88;;
51800;SDS011;37855;53.204;6.568;2022-10-16T09:18:16;8.65;;;1.83;;
51800;SDS011;37855;53.204;6.568;2022-10-16T09:21:15;8.05;;;1.70;;
51800;SDS011;37855;53.204;6.568;2022-10-16T09:23:49;6.95;;;1.58;;
51800;SDS011;37855;53.204;6.568;2022-10-16T09:26:15;7.72;;;1.95;;
51800;SDS011;37855;53.204;6.568;2022-10-16T09:28:43;8.52;;;2.10;;
51800;SDS011;37855;53.204;6.568;2022-10-16T09:31:18;9.77;;;1.85;;
51800;SDS011;37855;53.204;6.568;2022-10-16T09:33:53;10.32;;;2.10;;
51800;SDS011;37855;53.204;6.568;2022-10-16T09:36:23;8.15;;;1.83;;
51800;SDS011;37855;53.204;6.568;2022-10-16T09:39:01;13.57;;;2.45;;
51800;SDS011;37855;53.204;6.568;2022-10-16T09:41:30;9.50;;;2.05;;
51800;SDS011;37855;53.204;6.568;2022-10-16T09:44:01;12.43;;;2.28;;
51800;SDS011;37855;53.204;6.568;2022-10-16T09:46:30;11.35;;;2.25;;
51800;SDS011;37855;53.204;6.568;2022-10-16T09:49:04;13.35;;;2.70;;
51800;SDS011;37855;53.204;6.568;2022-10-16T09:51:44;16.52;;;2.50;;
51800;SDS011;37855;53.204;6.568;2022-10-16T09:54:20;13.32;;;2.30;;
51800;SDS011;37855;53.204;6.568;2022-10-16T09:56:46;13.55;;;1.95;;
51800;SDS011;37855;53.204;6.568;2022-10-16T09:59:20;10.38;;;2.15;;
51800;SDS011;37855;53.204;6.568;2022-10-16T10:02:00;10.13;;;2.22;;
51800;SDS011;37855;53.204;6.568;2022-10-16T10:04:37;11.93;;;2.80;;
51800;SDS011;37855;53.204;6.568;2022-10-16T10:10:21;11.55;;;2.20;;
51800;SDS011;37855;53.204;6.568;2022-10-16T10:12:49;12.70;;;2.65;;
51800;SDS011;37855;53.204;6.568;2022-10-16T10:15:14;15.98;;;2.88;;
51800;SDS011;37855;53.204;6.568;2022-10-16T10:17:56;12.25;;;2.45;;
51800;SDS011;37855;53.204;6.568;2022-10-16T10:20:30;12.40;;;2.40;;
51800;SDS011;37855;53.204;6.568;2022-10-16T10:23:00;14.30;;;2.42;;
51800;SDS011;37855;53.204;6.568;2022-10-16T10:25:49;14.48;;;2.55;;
51800;SDS011;37855;53.204;6.568;2022-10-16T10:28:32;16.83;;;2.92;;
51800;SDS011;37855;53.204;6.568;2022-10-16T10:31:19;17.15;;;2.72;;
51800;SDS011;37855;53.204;6.568;2022-10-16T10:36:47;18.08;;;3.05;;
51800;SDS011;37855;53.204;6.568;2022-10-16T10:39:29;14.73;;;2.85;;
51800;SDS011;37855;53.204;6.568;2022-10-16T10:42:21;17.20;;;2.30;;
51800;SDS011;37855;53.204;6.568;2022-10-16T10:48:28;14.50;;;2.72;;
51800;SDS011;37855;53.204;6.568;2022-10-16T10:51:04;13.00;;;2.38;;
51800;SDS011;37855;53.204;6.568;2022-10-16T10:56:10;15.57;;;2.53;;
51800;SDS011;37855;53.204;6.568;2022-10-16T11:04:27;13.30;;;2.70;;
51800;SDS011;37855;53.204;6.568;2022-10-16T11:07:02;16.55;;;2.90;;
51800;SDS011;37855;53.204;6.568;2022-10-16T11:09:31;14.48;;;2.70;;
51800;SDS011;37855;53.204;6.568;2022-10-16T11:12:11;9.93;;;1.98;;
51800;SDS011;37855;53.204;6.568;2022-10-16T11:17:38;13.65;;;2.53;;
51800;SDS011;37855;53.204;6.568;2022-10-16T11:20:32;12.93;;;2.55;;
51800;SDS011;37855;53.204;6.568;2022-10-16T11:23:23;14.43;;;2.87;;
51800;SDS011;37855;53.204;6.568;2022-10-16T11:25:54;20.13;;;2.75;;
51800;SDS011;37855;53.204;6.568;2022-10-16T11:28:29;11.98;;;2.60;;
51800;SDS011;37855;53.204;6.568;2022-10-16T11:31:05;14.38;;;2.97;;
51800;SDS011;37855;53.204;6.568;2022-10-16T11:33:42;14.65;;;2.33;;
51800;SDS011;37855;53.204;6.568;2022-10-16T11:36:14;13.85;;;2.50;;
51800;SDS011;37855;53.204;6.568;2022-10-16T11:41:21;15.38;;;2.35;;
51800;SDS011;37855;53.204;6.568;2022-10-16T11:43:51;11.18;;;2.45;;
51800;SDS011;37855;53.204;6.568;2022-10-16T11:46:38;11.30;;;2.38;;
51800;SDS011;37855;53.204;6.568;2022-10-16T11:49:13;13.95;;;2.45;;
51800;SDS011;37855;53.204;6.568;2022-10-16T11:52:00;12.13;;;2.42;;
51800;SDS011;37855;53.204;6.568;2022-10-16T11:54:47;15.65;;;2.50;;
51800;SDS011;37855;53.204;6.568;2022-10-16T11:57:53;11.23;;;2.22;;
51800;SDS011;37855;53.204;6.568;2022-10-16T12:08:45;12.98;;;2.63;;
51800;SDS011;37855;53.204;6.568;2022-10-16T12:14:05;15.10;;;2.40;;
51800;SDS011;37855;53.204;6.568;2022-10-16T12:19:29;16.98;;;2.75;;
51800;SDS011;37855;53.204;6.568;2022-10-16T12:22:04;13.32;;;2.40;;
51800;SDS011;37855;53.204;6.568;2022-10-16T12:24:42;12.55;;;2.42;;
51800;SDS011;37855;53.204;6.568;2022-10-16T12:30:06;16.30;;;2.50;;
51800;SDS011;37855;53.204;6.568;2022-10-16T12:32:45;14.02;;;3.10;;
51800;SDS011;37855;53.204;6.568;2022-10-16T12:35:21;15.43;;;2.50;;
51800;SDS011;37855;53.204;6.568;2022-10-16T12:38:04;15.47;;;2.73;;
51800;SDS011;37855;53.204;6.568;2022-10-16T12:40:33;14.88;;;2.75;;
51800;SDS011;37855;53.204;6.568;2022-10-16T12:43:12;14.95;;;2.58;;
51800;SDS011;37855;53.204;6.568;2022-10-16T12:46:00;15.93;;;2.65;;
51800;SDS011;37855;53.204;6.568;2022-10-16T12:48:26;13.63;;;2.72;;
51800;SDS011;37855;53.204;6.568;2022-10-16T12:50:53;11.60;;;2.72;;
51800;SDS011;37855;53.204;6.568;2022-10-16T12:53:25;14.43;;;2.70;;
51800;SDS011;37855;53.204;6.568;2022-10-16T12:55:54;15.20;;;3.05;;
51800;SDS011;37855;53.204;6.568;2022-10-16T12:58:52;12.82;;;2.30;;
51800;SDS011;37855;53.204;6.568;2022-10-16T13:01:34;15.82;;;2.80;;
51800;SDS011;37855;53.204;6.568;2022-10-16T13:20:52;14.05;;;2.95;;
51800;SDS011;37855;53.204;6.568;2022-10-16T13:29:07;12.48;;;2.50;;
51800;SDS011;37855;53.204;6.568;2022-10-16T13:31:36;10.30;;;2.42;;
51800;SDS011;37855;53.204;6.568;2022-10-16T13:34:04;13.27;;;2.30;;
51800;SDS011;37855;53.204;6.568;2022-10-16T13:36:41;13.18;;;2.50;;
51800;SDS011;37855;53.204;6.568;2022-10-16T13:41:40;16.25;;;2.58;;
51800;SDS011;37855;53.204;6.568;2022-10-16T13:44:11;12.52;;;2.63;;
51800;SDS011;37855;53.204;6.568;2022-10-16T13:46:40;15.17;;;2.83;;
51800;SDS011;37855;53.204;6.568;2022-10-16T13:49:16;13.60;;;2.92;;
51800;SDS011;37855;53.204;6.568;2022-10-16T13:51:54;13.35;;;2.58;;
51800;SDS011;37855;53.204;6.568;2022-10-16T13:54:22;13.27;;;2.38;;
51800;SDS011;37855;53.204;6.568;2022-10-16T13:56:49;14.88;;;2.72;;
51800;SDS011;37855;53.204;6.568;2022-10-16T13:59:24;17.38;;;3.05;;
51800;SDS011;37855;53.204;6.568;2022-10-16T14:01:53;12.38;;;2.53;;
51800;SDS011;37855;53.204;6.568;2022-10-16T14:04:22;15.20;;;2.50;;
51800;SDS011;37855;53.204;6.568;2022-10-16T14:06:50;17.15;;;3.00;;
51800;SDS011;37855;53.204;6.568;2022-10-16T14:09:24;16.02;;;3.00;;
51800;SDS011;37855;53.204;6.568;2022-10-16T14:12:02;14.95;;;2.70;;
51800;SDS011;37855;53.204;6.568;2022-10-16T14:14:54;12.65;;;2.55;;
51800;SDS011;37855;53.204;6.568;2022-10-16T14:19:51;14.27;;;2.53;;
51800;SDS011;37855;53.204;6.568;2022-10-16T14:24:47;13.63;;;2.60;;
51800;SDS011;37855;53.204;6.568;2022-10-16T14:38:00;15.20;;;2.80;;
51800;SDS011;37855;53.204;6.568;2022-10-16T14:40:29;14.50;;;3.03;;
51800;SDS011;37855;53.204;6.568;2022-10-16T14:42:57;13.98;;;2.72;;
51800;SDS011;37855;53.204;6.568;2022-10-16T14:45:24;16.90;;;2.90;;
51800;SDS011;37855;53.204;6.568;2022-10-16T14:47:57;16.38;;;2.97;;
51800;SDS011;37855;53.204;6.568;2022-10-16T14:50:28;15.70;;;3.08;;
51800;SDS011;37855;53.204;6.568;2022-10-16T14:52:54;16.75;;;2.85;;
51800;SDS011;37855;53.204;6.568;2022-10-16T14:55:20;16.10;;;2.88;;
51800;SDS011;37855;53.204;6.568;2022-10-16T14:57:46;18.05;;;2.83;;
51800;SDS011;37855;53.204;6.568;2022-10-16T15:00:14;13.07;;;2.80;;
51800;SDS011;37855;53.204;6.568;2022-10-16T15:02:46;13.32;;;3.00;;
51800;SDS011;37855;53.204;6.568;2022-10-16T15:05:18;12.27;;;2.50;;
51800;SDS011;37855;53.204;6.568;2022-10-16T15:07:47;15.50;;;2.67;;
51800;SDS011;37855;53.204;6.568;2022-10-16T15:10:14;12.23;;;2.45;;
51800;SDS011;37855;53.204;6.568;2022-10-16T15:12:40;13.65;;;2.30;;
51800;SDS011;37855;53.204;6.568;2022-10-16T15:17:56;13.95;;;2.60;;
51800;SDS011;37855;53.204;6.568;2022-10-16T15:20:23;18.95;;;3.05;;
51800;SDS011;37855;53.204;6.568;2022-10-16T15:22:49;16.33;;;2.60;;
51800;SDS011;37855;53.204;6.568;2022-10-16T15:27:56;16.35;;;2.70;;
51800;SDS011;37855;53.204;6.568;2022-10-16T15:30:23;13.88;;;2.80;;
51800;SDS011;37855;53.204;6.568;2022-10-16T15:32:48;11.10;;;2.63;;
51800;SDS011;37855;53.204;6.568;2022-10-16T15:35:14;16.80;;;2.72;;
51800;SDS011;37855;53.204;6.568;2022-10-16T15:37:40;16.10;;;3.20;;
51800;SDS011;37855;53.204;6.568;2022-10-16T15:40:06;12.43;;;2.72;;
51800;SDS011;37855;53.204;6.568;2022-10-16T15:42:36;15.65;;;3.17;;
51800;SDS011;37855;53.204;6.568;2022-10-16T15:45:02;14.95;;;2.97;;
51800;SDS011;37855;53.204;6.568;2022-10-16T15:47:32;14.48;;;3.15;;
51800;SDS011;37855;53.204;6.568;2022-10-16T15:49:58;15.27;;;2.92;;
51800;SDS011;37855;53.204;6.568;2022-10-16T15:52:24;13.57;;;2.60;;
51800;SDS011;37855;53.204;6.568;2022-10-16T15:54:49;12.30;;;2.78;;
51800;SDS011;37855;53.204;6.568;2022-10-16T15:57:15;12.60;;;2.53;;
51800;SDS011;37855;53.204;6.568;2022-10-16T15:59:41;13.45;;;2.63;;
51800;SDS011;37855;53.204;6.568;2022-10-16T16:02:07;13.93;;;2.70;;
51800;SDS011;37855;53.204;6.568;2022-10-16T16:04:33;12.90;;;2.67;;
51800;SDS011;37855;53.204;6.568;2022-10-16T16:06:59;13.20;;;2.65;;
51800;SDS011;37855;53.204;6.568;2022-10-16T16:09:29;15.30;;;2.80;;
51800;SDS011;37855;53.204;6.568;2022-10-16T16:11:54;13.85;;;2.38;;
51800;SDS011;37855;53.204;6.568;2022-10-16T16:14:20;15.75;;;3.03;;
51800;SDS011;37855;53.204;6.568;2022-10-16T16:16:46;16.55;;;3.13;;
51800;SDS011;37855;53.204;6.568;2022-10-16T16:19:12;16.88;;;3.53;;
51800;SDS011;37855;53.204;6.568;2022-10-16T16:21:37;17.10;;;3.42;;
51800;SDS011;37855;53.204;6.568;2022-10-16T16:24:04;17.75;;;3.28;;
51800;SDS011;37855;53.204;6.568;2022-10-16T16:26:33;13.43;;;3.08;;
51800;SDS011;37855;53.204;6.568;2022-10-16T16:29:02;17.25;;;3.35;;
51800;SDS011;37855;53.204;6.568;2022-10-16T16:31:29;17.58;;;3.50;;
51800;SDS011;37855;53.204;6.568;2022-10-16T16:33:56;14.98;;;3.15;;
51800;SDS011;37855;53.204;6.568;2022-10-16T16:36:23;17.02;;;3.05;;
51800;SDS011;37855;53.204;6.568;2022-10-16T16:38:51;19.15;;;3.58;;
51800;SDS011;37855;53.204;6.568;2022-10-16T16:41:17;15.23;;;3.15;;
51800;SDS011;37855;53.204;6.568;2022-10-16T16:43:47;11.75;;;2.72;;
51800;SDS011;37855;53.204;6.568;2022-10-16T16:46:14;13.73;;;2.83;;
51800;SDS011;37855;53.204;6.568;2022-10-16T16:48:40;15.65;;;3.03;;
51800;SDS011;37855;53.204;6.568;2022-10-16T16:51:07;15.27;;;3.10;;
51800;SDS011;37855;53.204;6.568;2022-10-16T16:53:40;15.02;;;3.00;;
51800;SDS011;37855;53.204;6.568;2022-10-16T16:56:06;11.70;;;3.33;;
51800;SDS011;37855;53.204;6.568;2022-10-16T16:58:32;17.02;;;3.22;;
51800;SDS011;37855;53.204;6.568;2022-10-16T17:00:59;13.23;;;3.22;;